Time;durP1;ratioP1;P1;durP2;ratioP2;P2;SDS_P1;SDS_P2;PMS_P1;PMS_P2;Temp;Humidity;BMP_temperature;BMP_pressure;BME280_temperature;BME280_humidity;BME280_pressure;Samples;Min_cycle;Max_cycle;Signal;HPM_P1;HPM_P2
2023/08/14 00:01:03;;;;;;;727.95;479.63;;;;;;;;;;5026960;28;20433;-73
2023/08/14 00:03:31;;;;;;;726.65;474.05;;;;;;;;;;5045822;28;20463;-73
2023/08/14 00:05:59;;;;;;;761.70;510.00;;;;;;;;;;5029556;28;20437;-73
2023/08/14 00:08:26;;;;;;;778.83;533.95;;;;;;;;;;5030809;28;20483;-73
2023/08/14 00:10:54;;;;;;;755.33;513.42;;;;;;;;;;5028640;28;20444;-73
2023/08/14 00:13:22;;;;;;;756.38;513.78;;;;;;;;;;5029119;28;21269;-73
2023/08/14 00:15:49;;;;;;;759.03;512.38;;;;;;;;;;5028842;28;21154;-73
2023/08/14 00:18:17;;;;;;;760.97;515.63;;;;;;;;;;5026162;28;20441;-73
2023/08/14 00:20:44;;;;;;;764.10;511.40;;;;;;;;;;5028275;28;20437;-73
2023/08/14 00:23:11;;;;;;;762.65;509.88;;;;;;;;;;5028006;28;20431;-74
2023/08/14 00:25:39;;;;;;;790.28;547.60;;;;;;;;;;5029233;28;21168;-73
2023/08/14 00:28:06;;;;;;;763.95;512.72;;;;;;;;;;5029462;28;20438;-73
2023/08/14 00:30:33;;;;;;;752.13;492.48;;;;;;;;;;5028648;28;20437;-73
2023/08/14 00:33:01;;;;;;;750.65;499.30;;;;;;;;;;5030166;28;20938;-74
2023/08/14 00:35:28;;;;;;;746.20;501.65;;;;;;;;;;5022718;28;20499;-73
2023/08/14 00:37:55;;;;;;;749.88;504.02;;;;;;;;;;5019645;28;20473;-74
2023/08/14 00:40:22;;;;;;;734.45;480.52;;;;;;;;;;5028924;28;20522;-73
2023/08/14 00:42:49;;;;;;;738.33;497.57;;;;;;;;;;5028554;28;21439;-73
2023/08/14 00:45:17;;;;;;;751.78;493.88;;;;;;;;;;5029905;28;20427;-74
2023/08/14 00:47:45;;;;;;;740.15;483.65;;;;;;;;;;5030220;28;20439;-73
2023/08/14 00:50:13;;;;;;;791.70;554.30;;;;;;;;;;5028871;28;20515;-74
2023/08/14 00:52:42;;;;;;;826.60;598.38;;;;;;;;;;5028859;28;20449;-74
2023/08/14 00:55:12;;;;;;;836.22;615.88;;;;;;;;;;5036582;28;20441;-73
2023/08/14 00:57:40;;;;;;;853.65;630.85;;;;;;;;;;5032425;28;20516;-73
2023/08/14 01:00:07;;;;;;;871.85;656.80;;;;;;;;;;5028271;28;20425;-73
2023/08/14 01:02:35;;;;;;;886.83;675.65;;;;;;;;;;5026719;28;21144;-73
2023/08/14 01:05:03;;;;;;;881.28;669.00;;;;;;;;;;5029654;28;20475;-73
2023/08/14 01:07:30;;;;;;;876.60;656.53;;;;;;;;;;5030093;28;20436;-74
2023/08/14 01:09:57;;;;;;;819.95;568.15;;;;;;;;;;5028016;28;21495;-74
2023/08/14 01:12:48;;;;;;;814.15;575.25;;;;;;;;;;5025627;28;20519;-73
2023/08/14 01:15:17;;;;;;;830.40;576.35;;;;;;;;;;5030588;28;20524;-73
2023/08/14 01:17:49;;;;;;;825.67;583.78;;;;;;;;;;5028274;28;20513;-73
2023/08/14 01:20:18;;;;;;;820.63;568.50;;;;;;;;;;5033184;28;20425;-73
2023/08/14 01:22:50;;;;;;;823.17;575.53;;;;;;;;;;5026034;28;20512;-73
2023/08/14 01:25:21;;;;;;;830.30;577.13;;;;;;;;;;5031649;28;20423;-73
2023/08/14 01:27:49;;;;;;;817.92;576.40;;;;;;;;;;5027691;28;20433;-73
2023/08/14 01:30:16;;;;;;;790.95;541.13;;;;;;;;;;5029166;28;20470;-73
2023/08/14 01:32:44;;;;;;;774.25;519.67;;;;;;;;;;5031787;28;20487;-73
2023/08/14 01:35:11;;;;;;;783.83;527.60;;;;;;;;;;5030010;28;20452;-73
2023/08/14 01:38:06;;;;;;;791.30;544.45;;;;;;;;;;5030813;28;20498;-73
2023/08/14 01:40:48;;;;;;;776.83;529.95;;;;;;;;;;5021750;28;20950;-73
2023/08/14 01:43:22;;;;;;;773.85;515.75;;;;;;;;;;5028105;28;20518;-73
2023/08/14 01:45:49;;;;;;;772.92;521.15;;;;;;;;;;5032604;28;20442;-73
2023/08/14 01:48:17;;;;;;;765.70;511.85;;;;;;;;;;5030926;28;20461;-73
2023/08/14 01:50:44;;;;;;;762.35;505.85;;;;;;;;;;5028048;28;20519;-73
2023/08/14 01:53:11;;;;;;;746.80;478.60;;;;;;;;;;5030007;28;20437;-73
2023/08/14 01:55:38;;;;;;;751.15;491.70;;;;;;;;;;5033927;28;20501;-73
2023/08/14 01:58:06;;;;;;;744.70;485.75;;;;;;;;;;5032388;28;20444;-73
2023/08/14 02:00:34;;;;;;;797.08;558.25;;;;;;;;;;5033198;28;20479;-74
2023/08/14 02:03:01;;;;;;;752.60;484.20;;;;;;;;;;5030943;28;20436;-73
2023/08/14 02:05:29;;;;;;;789.03;556.60;;;;;;;;;;5032331;28;20433;-73
2023/08/14 02:07:56;;;;;;;794.55;563.67;;;;;;;;;;5029487;28;21003;-74
2023/08/14 02:10:23;;;;;;;767.65;525.33;;;;;;;;;;5034158;28;20443;-73
2023/08/14 02:12:50;;;;;;;790.78;554.80;;;;;;;;;;5033089;28;20433;-74
2023/08/14 02:15:20;;;;;;;776.00;517.63;;;;;;;;;;5028711;28;21330;-74
2023/08/14 02:17:47;;;;;;;791.58;549.65;;;;;;;;;;5036294;28;20444;-73
2023/08/14 02:20:16;;;;;;;785.47;530.60;;;;;;;;;;5038856;28;20433;-73
2023/08/14 02:22:43;;;;;;;786.75;533.55;;;;;;;;;;5032804;28;20440;-73
2023/08/14 02:25:10;;;;;;;793.40;543.88;;;;;;;;;;5035377;28;20528;-73
2023/08/14 02:27:38;;;;;;;820.97;587.50;;;;;;;;;;5031992;28;20431;-73
2023/08/14 02:30:05;;;;;;;811.77;578.80;;;;;;;;;;5036531;28;20441;-74
2023/08/14 02:32:32;;;;;;;792.88;558.38;;;;;;;;;;5033048;28;20429;-73
2023/08/14 02:35:00;;;;;;;797.92;562.72;;;;;;;;;;5029821;28;20510;-74
2023/08/14 02:37:27;;;;;;;797.22;566.53;;;;;;;;;;5032581;28;20445;-73
2023/08/14 02:39:54;;;;;;;822.17;595.08;;;;;;;;;;5028779;28;20490;-73
2023/08/14 02:42:21;;;;;;;827.50;596.75;;;;;;;;;;5031620;28;20909;-73
2023/08/14 02:44:50;;;;;;;832.53;603.88;;;;;;;;;;5029459;28;20486;-74
2023/08/14 02:47:18;;;;;;;830.30;664.53;;;;;;;;;;5029073;28;20433;-74
2023/08/14 02:49:45;;;;;;;861.37;642.17;;;;;;;;;;5032430;28;20466;-74
2023/08/14 02:52:12;;;;;;;852.53;657.50;;;;;;;;;;5029353;28;20437;-74
2023/08/14 02:54:39;;;;;;;860.17;638.80;;;;;;;;;;5034957;28;20990;-72
2023/08/14 02:57:07;;;;;;;856.92;647.72;;;;;;;;;;5028433;28;20550;-72
2023/08/14 02:59:35;;;;;;;860.97;635.70;;;;;;;;;;5031191;28;22779;-73
2023/08/14 03:02:02;;;;;;;824.85;595.00;;;;;;;;;;5031103;28;20512;-76
2023/08/14 03:04:32;;;;;;;858.90;637.50;;;;;;;;;;5030072;28;20440;-73
2023/08/14 03:06:59;;;;;;;822.75;599.42;;;;;;;;;;5031355;28;20460;-73
2023/08/14 03:09:27;;;;;;;457.23;414.17;;;;;;;;;;5031294;28;20431;-73
2023/08/14 03:11:57;;;;;;;309.38;283.73;;;;;;;;;;5031271;28;20433;-72
2023/08/14 03:14:24;;;;;;;174.00;159.32;;;;;;;;;;5030426;28;20502;-73
2023/08/14 03:16:51;;;;;;;387.80;348.40;;;;;;;;;;5028775;28;22534;-73
2023/08/14 03:19:18;;;;;;;856.08;647.83;;;;;;;;;;5030399;28;20439;-73
2023/08/14 03:21:46;;;;;;;836.10;613.40;;;;;;;;;;5030253;28;20438;-73
2023/08/14 03:24:13;;;;;;;854.80;634.35;;;;;;;;;;5036246;28;20429;-73
2023/08/14 03:26:40;;;;;;;821.20;592.38;;;;;;;;;;5035213;28;21404;-72
2023/08/14 03:29:11;;;;;;;822.03;595.67;;;;;;;;;;5035802;28;20425;-73
2023/08/14 03:31:38;;;;;;;814.95;582.92;;;;;;;;;;5035082;28;20437;-73
2023/08/14 03:34:06;;;;;;;777.00;643.35;;;;;;;;;;5035041;28;20431;-72
2023/08/14 03:36:33;;;;;;;857.05;641.45;;;;;;;;;;5035762;28;20521;-72
2023/08/14 03:39:00;;;;;;;792.20;642.33;;;;;;;;;;5039055;28;20530;-74
2023/08/14 03:41:27;;;;;;;701.27;632.63;;;;;;;;;;5031642;28;21114;-72
2023/08/14 03:43:54;;;;;;;848.33;637.53;;;;;;;;;;5030579;28;20443;-73
2023/08/14 03:46:21;;;;;;;801.72;665.15;;;;;;;;;;5030197;28;20497;-72
2023/08/14 03:48:49;;;;;;;805.45;660.10;;;;;;;;;;5030644;28;20502;-72
2023/08/14 03:51:16;;;;;;;821.15;673.30;;;;;;;;;;5027341;28;21886;-72
2023/08/14 03:53:43;;;;;;;819.42;645.28;;;;;;;;;;5030712;28;20435;-72
2023/08/14 03:56:10;;;;;;;819.88;591.85;;;;;;;;;;5028727;28;20534;-72
2023/08/14 03:58:37;;;;;;;821.20;590.53;;;;;;;;;;5029684;28;20470;-72
2023/08/14 04:01:04;;;;;;;839.10;611.28;;;;;;;;;;5030721;28;20437;-72
2023/08/14 04:03:32;;;;;;;835.67;600.78;;;;;;;;;;5030408;28;20440;-72
2023/08/14 04:05:59;;;;;;;834.60;605.58;;;;;;;;;;5031037;28;20433;-72
2023/08/14 04:08:26;;;;;;;820.05;586.35;;;;;;;;;;5029326;28;20433;-72
2023/08/14 04:10:56;;;;;;;838.47;609.20;;;;;;;;;;5030607;28;20441;-72
2023/08/14 04:13:24;;;;;;;821.75;592.28;;;;;;;;;;5029967;28;20439;-72
2023/08/14 04:15:59;;;;;;;805.00;581.05;;;;;;;;;;5031391;28;20439;-72
2023/08/14 04:18:27;;;;;;;819.50;596.50;;;;;;;;;;5029770;28;20569;-72
2023/08/14 04:20:54;;;;;;;829.58;602.80;;;;;;;;;;5026275;28;21137;-72
2023/08/14 04:23:25;;;;;;;847.20;623.08;;;;;;;;;;5031605;28;20437;-72
2023/08/14 04:25:53;;;;;;;834.95;600.20;;;;;;;;;;5030364;28;20920;-72
2023/08/14 04:28:20;;;;;;;838.28;608.03;;;;;;;;;;5030960;28;20441;-72
2023/08/14 04:30:48;;;;;;;827.38;657.17;;;;;;;;;;5029748;28;20496;-72
2023/08/14 04:33:15;;;;;;;876.43;668.37;;;;;;;;;;5026407;28;20842;-72
2023/08/14 04:35:42;;;;;;;549.40;501.60;;;;;;;;;;5028659;28;20430;-72
2023/08/14 04:38:10;;;;;;;860.08;708.25;;;;;;;;;;5027854;28;20562;-72
2023/08/14 04:40:37;;;;;;;257.20;234.65;;;;;;;;;;5024707;28;20580;-72
2023/08/14 04:43:04;;;;;;;689.47;614.78;;;;;;;;;;5027807;28;20499;-72
2023/08/14 04:45:32;;;;;;;793.65;700.03;;;;;;;;;;5024757;28;20438;-72
2023/08/14 04:47:59;;;;;;;890.83;677.35;;;;;;;;;;5027829;28;20501;-72
2023/08/14 04:50:27;;;;;;;737.73;665.13;;;;;;;;;;5029538;28;21111;-72
2023/08/14 04:52:54;;;;;;;880.95;665.42;;;;;;;;;;5029982;28;20439;-72
2023/08/14 04:55:23;;;;;;;898.08;701.67;;;;;;;;;;5029040;28;20490;-72
2023/08/14 04:57:51;;;;;;;894.93;667.90;;;;;;;;;;5028846;28;20765;-72
2023/08/14 05:00:18;;;;;;;730.15;655.40;;;;;;;;;;5026781;28;20436;-73
2023/08/14 05:02:45;;;;;;;405.10;369.23;;;;;;;;;;5032524;28;20435;-72
2023/08/14 05:05:13;;;;;;;370.45;338.42;;;;;;;;;;5025107;28;20441;-72
2023/08/14 05:07:40;;;;;;;797.70;719.03;;;;;;;;;;5027740;28;20550;-72
2023/08/14 05:10:07;;;;;;;895.20;670.05;;;;;;;;;;5026781;28;20437;-73
2023/08/14 05:12:34;;;;;;;869.95;643.13;;;;;;;;;;5027504;28;21107;-73
2023/08/14 05:15:01;;;;;;;848.03;615.45;;;;;;;;;;5033189;28;21236;-73
2023/08/14 05:17:29;;;;;;;875.28;645.80;;;;;;;;;;5031606;28;20433;-74
2023/08/14 05:19:57;;;;;;;881.40;649.22;;;;;;;;;;5033109;28;20426;-73
2023/08/14 05:22:24;;;;;;;887.67;656.40;;;;;;;;;;5029247;28;22228;-72
2023/08/14 05:24:51;;;;;;;899.58;672.67;;;;;;;;;;5026960;28;20437;-72
2023/08/14 05:27:19;;;;;;;914.60;702.25;;;;;;;;;;5033705;28;20484;-73
2023/08/14 05:29:47;;;;;;;928.37;708.00;;;;;;;;;;5025598;28;20524;-73
2023/08/14 05:32:14;;;;;;;824.58;738.42;;;;;;;;;;5030098;28;20815;-72
2023/08/14 05:34:42;;;;;;;933.80;731.30;;;;;;;;;;5031740;28;20441;-73
2023/08/14 05:37:09;;;;;;;933.70;716.67;;;;;;;;;;5028106;28;20431;-73
2023/08/14 05:39:37;;;;;;;941.20;720.88;;;;;;;;;;5026589;28;21135;-73
2023/08/14 05:42:06;;;;;;;950.67;753.58;;;;;;;;;;5029341;28;20955;-73
2023/08/14 05:44:34;;;;;;;933.88;727.08;;;;;;;;;;5036457;28;20441;-73
2023/08/14 05:47:01;;;;;;;960.92;742.95;;;;;;;;;;5040324;28;20428;-73
2023/08/14 05:49:28;;;;;;;949.42;729.72;;;;;;;;;;5032710;28;20429;-74
2023/08/14 05:51:55;;;;;;;956.17;739.30;;;;;;;;;;5028100;28;20445;-72
2023/08/14 05:54:22;;;;;;;967.15;788.63;;;;;;;;;;5033331;28;20555;-73
2023/08/14 05:56:50;;;;;;;981.37;769.07;;;;;;;;;;5030241;28;20490;-73
2023/08/14 05:59:18;;;;;;;973.40;757.97;;;;;;;;;;5029722;28;20437;-73
2023/08/14 06:01:45;;;;;;;978.00;769.03;;;;;;;;;;5024189;28;20444;-73
2023/08/14 06:04:13;;;;;;;975.50;760.85;;;;;;;;;;5027324;28;20452;-73
2023/08/14 06:06:40;;;;;;;980.78;767.88;;;;;;;;;;5026323;28;20437;-73
2023/08/14 06:09:07;;;;;;;950.78;785.97;;;;;;;;;;5028214;28;20864;-73
2023/08/14 06:11:35;;;;;;;980.33;764.92;;;;;;;;;;5025703;28;20467;-73
2023/08/14 06:14:03;;;;;;;980.70;770.90;;;;;;;;;;5027964;28;20527;-72
2023/08/14 06:16:30;;;;;;;982.88;789.33;;;;;;;;;;5027887;28;20681;-73
2023/08/14 06:18:57;;;;;;;975.08;769.83;;;;;;;;;;5028117;28;20466;-73
2023/08/14 06:21:24;;;;;;;975.05;764.97;;;;;;;;;;5026035;28;20421;-73
2023/08/14 06:23:52;;;;;;;987.00;798.35;;;;;;;;;;5023786;28;20438;-72
2023/08/14 06:26:19;;;;;;;935.80;724.33;;;;;;;;;;5029052;28;20437;-73
2023/08/14 06:28:46;;;;;;;944.83;737.05;;;;;;;;;;5028125;28;20471;-72
2023/08/14 06:31:14;;;;;;;137.73;126.38;;;;;;;;;;5028153;28;20433;-72
2023/08/14 06:33:41;;;;;;;19.75;18.35;;;;;;;;;;5028928;28;20445;-68
2023/08/14 06:36:09;;;;;;;946.50;853.77;;;;;;;;;;5027965;28;20435;-68
2023/08/14 06:38:36;;;;;;;775.72;701.05;;;;;;;;;;5027374;28;20447;-68
2023/08/14 06:41:09;;;;;;;813.23;744.70;;;;;;;;;;5030182;28;20516;-73
2023/08/14 06:43:36;;;;;;;432.20;395.17;;;;;;;;;;5029700;28;20461;-73
2023/08/14 06:46:03;;;;;;;9.50;8.70;;;;;;;;;;5030106;28;20532;-73
2023/08/14 06:48:33;;;;;;;127.18;117.40;;;;;;;;;;5030259;28;20931;-74
2023/08/14 06:51:00;;;;;;;5.95;3.30;;;;;;;;;;5024897;28;20433;-73
2023/08/14 06:53:27;;;;;;;4.87;3.87;;;;;;;;;;5029111;28;20502;-74
2023/08/14 06:55:55;;;;;;;14.88;13.65;;;;;;;;;;5028837;28;20444;-73
2023/08/14 06:58:23;;;;;;;3.22;2.05;;;;;;;;;;5028998;28;20439;-72
2023/08/14 07:00:51;;;;;;;4.30;2.20;;;;;;;;;;5026159;28;20493;-72
2023/08/14 07:03:18;;;;;;;2.55;2.30;;;;;;;;;;5027318;28;20427;-73
2023/08/14 07:05:45;;;;;;;5.15;2.60;;;;;;;;;;5026222;28;20438;-73
2023/08/14 07:08:12;;;;;;;3.57;2.40;;;;;;;;;;5028806;28;20446;-73
2023/08/14 07:10:39;;;;;;;3.92;2.45;;;;;;;;;;5029587;28;20515;-73
2023/08/14 07:13:07;;;;;;;4.20;2.30;;;;;;;;;;5028427;28;20445;-74
2023/08/14 07:15:35;;;;;;;46.17;41.78;;;;;;;;;;5028133;28;20433;-73
2023/08/14 07:18:06;;;;;;;5.20;2.40;;;;;;;;;;5026713;28;20441;-73
2023/08/14 07:20:36;;;;;;;6.60;2.28;;;;;;;;;;5030497;28;20449;-74
2023/08/14 07:23:03;;;;;;;5.05;2.42;;;;;;;;;;5041394;28;20460;-72
2023/08/14 07:25:30;;;;;;;5.72;2.50;;;;;;;;;;5027708;28;20434;-72
2023/08/14 07:27:57;;;;;;;4.97;2.30;;;;;;;;;;5026864;28;20453;-72
2023/08/14 07:30:24;;;;;;;38.75;35.13;;;;;;;;;;5025118;28;20441;-72
2023/08/14 07:32:52;;;;;;;678.80;620.33;;;;;;;;;;5026861;28;20441;-72
2023/08/14 07:35:19;;;;;;;1043.85;946.03;;;;;;;;;;5030132;28;20456;-73
2023/08/14 07:37:46;;;;;;;901.30;809.35;;;;;;;;;;5026242;28;20430;-72
2023/08/14 07:40:13;;;;;;;1035.30;944.00;;;;;;;;;;5028831;28;20537;-70
2023/08/14 07:42:43;;;;;;;749.03;685.10;;;;;;;;;;5022136;28;20444;-72
2023/08/14 07:45:10;;;;;;;1063.63;962.97;;;;;;;;;;5027213;28;20434;-72
2023/08/14 07:47:37;;;;;;;338.17;309.27;;;;;;;;;;5026676;28;20454;-71
2023/08/14 07:50:05;;;;;;;520.97;475.83;;;;;;;;;;5027944;28;20466;-72
2023/08/14 07:52:34;;;;;;;911.13;832.28;;;;;;;;;;5031580;28;20471;-72
2023/08/14 07:55:02;;;;;;;693.00;633.95;;;;;;;;;;5022382;28;20886;-72
2023/08/14 07:57:32;;;;;;;89.63;83.13;;;;;;;;;;5027401;28;20507;-72
2023/08/14 07:59:59;;;;;;;596.83;544.65;;;;;;;;;;5025614;28;20553;-72
2023/08/14 08:02:27;;;;;;;851.38;780.30;;;;;;;;;;5023608;28;20634;-72
2023/08/14 08:04:55;;;;;;;30.57;28.33;;;;;;;;;;5027489;28;20550;-71
2023/08/14 08:07:26;;;;;;;1026.17;938.07;;;;;;;;;;5025808;28;20437;-72
2023/08/14 08:09:53;;;;;;;833.30;758.13;;;;;;;;;;5023684;28;20467;-72
2023/08/14 08:12:21;;;;;;;909.33;830.47;;;;;;;;;;5024879;28;23736;-72
2023/08/14 08:14:51;;;;;;;949.47;862.53;;;;;;;;;;5027196;28;20522;-72
2023/08/14 08:17:18;;;;;;;1036.05;942.47;;;;;;;;;;5026481;28;20460;-71
2023/08/14 08:19:48;;;;;;;821.45;753.00;;;;;;;;;;5024512;28;20453;-72
2023/08/14 08:22:15;;;;;;;476.92;434.17;;;;;;;;;;5027557;28;20447;-73
2023/08/14 08:24:43;;;;;;;680.47;622.45;;;;;;;;;;5022541;28;20447;-75
2023/08/14 08:27:10;;;;;;;496.60;453.52;;;;;;;;;;5024145;28;21071;-72
2023/08/14 08:29:37;;;;;;;1011.77;921.93;;;;;;;;;;5026230;28;20430;-72
2023/08/14 08:32:05;;;;;;;1028.22;939.30;;;;;;;;;;5026417;28;20498;-73
2023/08/14 08:34:32;;;;;;;1006.40;915.70;;;;;;;;;;5014455;28;21127;-72
2023/08/14 08:36:59;;;;;;;1058.63;962.15;;;;;;;;;;5022532;28;20525;-71
2023/08/14 08:39:27;;;;;;;1072.75;971.88;;;;;;;;;;5026857;28;20434;-71
2023/08/14 08:41:56;;;;;;;976.55;896.05;;;;;;;;;;5024685;28;21176;-71
2023/08/14 08:44:27;;;;;;;1051.87;925.73;;;;;;;;;;5023433;28;20472;-71
2023/08/14 08:47:05;;;;;;;1051.07;924.20;;;;;;;;;;5023670;28;20468;-71
2023/08/14 08:49:32;;;;;;;1056.45;946.15;;;;;;;;;;5024556;28;20519;-72
2023/08/14 08:52:01;;;;;;;1058.22;957.13;;;;;;;;;;5024685;28;21312;-73
2023/08/14 08:54:30;;;;;;;1058.00;961.63;;;;;;;;;;5020579;28;20440;-72
2023/08/14 08:56:57;;;;;;;1051.38;946.63;;;;;;;;;;5020866;28;20949;-71
2023/08/14 08:59:25;;;;;;;1062.88;964.92;;;;;;;;;;5021543;28;21024;-71
2023/08/14 09:01:53;;;;;;;1051.05;925.38;;;;;;;;;;5023934;28;20785;-72
2023/08/14 09:04:24;;;;;;;1059.15;945.53;;;;;;;;;;5025239;28;20440;-72
2023/08/14 09:06:51;;;;;;;1047.10;911.20;;;;;;;;;;5025359;28;20444;-72
2023/08/14 09:09:18;;;;;;;1063.67;952.53;;;;;;;;;;5023476;28;20429;-71
2023/08/14 09:11:45;;;;;;;1036.97;930.30;;;;;;;;;;5019479;28;20520;-70
2023/08/14 09:14:13;;;;;;;1027.05;922.75;;;;;;;;;;5026626;28;20431;-70
2023/08/14 09:16:44;;;;;;;936.97;859.60;;;;;;;;;;5024866;28;20521;-72
2023/08/14 09:19:14;;;;;;;1005.50;902.13;;;;;;;;;;5021890;28;20566;-71
2023/08/14 09:21:44;;;;;;;1039.53;930.97;;;;;;;;;;5027367;28;20441;-71
2023/08/14 09:24:14;;;;;;;1032.50;922.90;;;;;;;;;;5024429;28;20929;-71
2023/08/14 09:26:44;;;;;;;856.20;781.08;;;;;;;;;;5021422;28;20575;-71
2023/08/14 09:29:13;;;;;;;1057.20;947.42;;;;;;;;;;5022905;28;20443;-72
2023/08/14 09:31:43;;;;;;;1053.65;934.35;;;;;;;;;;5026931;28;20448;-71
2023/08/14 09:34:19;;;;;;;425.40;388.10;;;;;;;;;;5022570;28;20425;-71
2023/08/14 09:36:54;;;;;;;666.10;608.67;;;;;;;;;;5023042;28;20433;-71
2023/08/14 09:39:23;;;;;;;3.10;2.55;;;;;;;;;;5025983;28;20431;-71
2023/08/14 09:41:50;;;;;;;164.38;151.30;;;;;;;;;;5025868;28;20899;-71
2023/08/14 09:44:21;;;;;;;6.33;5.83;;;;;;;;;;5025794;28;20451;-70
2023/08/14 09:46:54;;;;;;;8.45;7.55;;;;;;;;;;5029470;28;20421;-71
2023/08/14 09:49:22;;;;;;;225.13;206.83;;;;;;;;;;5015042;28;20431;-71
2023/08/14 09:51:55;;;;;;;4.80;4.50;;;;;;;;;;5020612;28;20433;-70
2023/08/14 09:54:34;;;;;;;10.18;9.55;;;;;;;;;;5025123;28;20458;-70
2023/08/14 09:57:05;;;;;;;872.25;799.17;;;;;;;;;;5030598;28;20441;-70
2023/08/14 09:59:36;;;;;;;1109.30;999.90;;;;;;;;;;5038311;28;20438;-70
2023/08/14 10:02:05;;;;;;;1011.63;924.45;;;;;;;;;;5035874;28;20430;-70
2023/08/14 10:04:33;;;;;;;1139.53;999.90;;;;;;;;;;5026952;28;20425;-70
2023/08/14 10:07:01;;;;;;;248.68;228.85;;;;;;;;;;5027707;28;20523;-71
2023/08/14 10:09:31;;;;;;;303.65;278.98;;;;;;;;;;5026467;28;20436;-70
2023/08/14 10:12:02;;;;;;;54.80;51.00;;;;;;;;;;5024280;28;20456;-71
2023/08/14 10:14:30;;;;;;;387.73;354.80;;;;;;;;;;5028467;28;20460;-66
2023/08/14 10:16:58;;;;;;;378.30;345.83;;;;;;;;;;5027410;28;20440;-66
2023/08/14 10:19:28;;;;;;;748.05;683.88;;;;;;;;;;5028686;28;20440;-66
2023/08/14 10:21:55;;;;;;;1175.13;999.90;;;;;;;;;;5025999;28;20460;-65
2023/08/14 10:24:23;;;;;;;885.33;811.38;;;;;;;;;;5026732;28;20431;-66
2023/08/14 10:26:51;;;;;;;123.45;113.57;;;;;;;;;;5024690;28;20448;-66
2023/08/14 10:29:18;;;;;;;290.27;264.00;;;;;;;;;;5027305;28;20448;-65
2023/08/14 10:31:46;;;;;;;3.17;2.92;;;;;;;;;;5027296;28;20441;-65
2023/08/14 10:34:15;;;;;;;32.45;30.45;;;;;;;;;;5028605;28;20510;-66
2023/08/14 10:36:42;;;;;;;891.53;815.95;;;;;;;;;;5026988;28;20521;-66
2023/08/14 10:39:11;;;;;;;723.08;660.05;;;;;;;;;;5025000;28;20601;-65
2023/08/14 10:41:49;;;;;;;956.97;876.60;;;;;;;;;;5024956;28;20443;-65
2023/08/14 10:44:17;;;;;;;55.67;51.85;;;;;;;;;;5028150;28;20452;-66
2023/08/14 10:46:44;;;;;;;1209.07;999.90;;;;;;;;;;5031184;28;20431;-65
2023/08/14 10:49:12;;;;;;;1195.88;999.90;;;;;;;;;;5027001;28;20573;-70
2023/08/14 10:51:41;;;;;;;1223.93;999.90;;;;;;;;;;5027280;28;20433;-69
2023/08/14 10:54:10;;;;;;;1195.90;999.90;;;;;;;;;;5028872;28;20434;-69
2023/08/14 10:56:45;;;;;;;1167.00;999.90;;;;;;;;;;5027995;28;20427;-69
2023/08/14 10:59:23;;;;;;;1197.10;999.90;;;;;;;;;;5026814;28;20443;-68
2023/08/14 11:02:11;;;;;;;1113.20;995.50;;;;;;;;;;5030241;28;20445;-69
2023/08/14 11:04:58;;;;;;;1168.55;999.90;;;;;;;;;;5028924;28;20518;-68
2023/08/14 11:07:27;;;;;;;1172.30;999.90;;;;;;;;;;5028192;28;20445;-69
2023/08/14 11:09:55;;;;;;;1158.00;999.90;;;;;;;;;;5026966;28;20448;-70
2023/08/14 11:12:23;;;;;;;1187.72;999.90;;;;;;;;;;5027565;28;20514;-69
2023/08/14 11:14:50;;;;;;;1208.22;999.90;;;;;;;;;;5031503;28;20449;-70
2023/08/14 11:17:17;;;;;;;1200.88;999.90;;;;;;;;;;5027060;28;20962;-70
2023/08/14 11:19:45;;;;;;;1217.93;999.90;;;;;;;;;;5025465;28;20433;-67
2023/08/14 11:22:12;;;;;;;1257.50;999.90;;;;;;;;;;5028841;28;20506;-68
2023/08/14 11:24:40;;;;;;;1228.70;999.90;;;;;;;;;;5026844;28;20479;-69
2023/08/14 11:27:07;;;;;;;1211.50;999.90;;;;;;;;;;5032525;28;20429;-68
2023/08/14 11:29:35;;;;;;;1197.65;999.90;;;;;;;;;;5035559;28;20520;-68
2023/08/14 11:32:11;;;;;;;1201.38;999.90;;;;;;;;;;5045423;28;20432;-69
2023/08/14 11:34:38;;;;;;;657.80;599.92;;;;;;;;;;5037253;28;20518;-69
2023/08/14 11:37:07;;;;;;;1106.63;998.03;;;;;;;;;;5031979;28;20442;-69
2023/08/14 11:39:37;;;;;;;550.75;503.20;;;;;;;;;;5033372;28;20430;-69
2023/08/14 11:42:04;;;;;;;503.43;459.47;;;;;;;;;;5030275;28;20434;-69
2023/08/14 11:44:33;;;;;;;871.42;794.75;;;;;;;;;;5037786;28;20474;-69
2023/08/14 11:47:02;;;;;;;1147.10;999.90;;;;;;;;;;5030549;28;20427;-68
2023/08/14 11:49:34;;;;;;;1213.60;999.90;;;;;;;;;;5037324;28;20434;-69
2023/08/14 11:52:08;;;;;;;1029.67;944.60;;;;;;;;;;5029616;28;20832;-68
2023/08/14 11:54:35;;;;;;;1228.20;999.90;;;;;;;;;;5032308;28;20437;-69
2023/08/14 11:57:03;;;;;;;1223.65;999.90;;;;;;;;;;5044980;28;21193;-69
2023/08/14 11:59:30;;;;;;;1190.45;999.90;;;;;;;;;;5036919;28;20516;-69
2023/08/14 12:01:58;;;;;;;1237.78;999.90;;;;;;;;;;5043580;28;20436;-69
2023/08/14 12:04:25;;;;;;;1260.50;999.90;;;;;;;;;;5028743;28;20943;-69
2023/08/14 12:06:54;;;;;;;1237.00;999.90;;;;;;;;;;5052298;28;20453;-69
2023/08/14 12:09:27;;;;;;;1032.10;943.60;;;;;;;;;;5045856;28;20519;-69
2023/08/14 12:11:54;;;;;;;696.03;637.15;;;;;;;;;;5027642;28;20436;-69
2023/08/14 12:14:21;;;;;;;1000.43;917.53;;;;;;;;;;5029006;28;20528;-69
2023/08/14 12:16:49;;;;;;;195.82;178.82;;;;;;;;;;5027594;28;20442;-69
2023/08/14 12:19:20;;;;;;;1235.60;999.90;;;;;;;;;;5026337;28;20515;-69
2023/08/14 12:21:55;;;;;;;1231.25;999.90;;;;;;;;;;5026119;28;20437;-68
2023/08/14 12:24:23;;;;;;;1193.93;999.90;;;;;;;;;;5029953;28;20798;-69
2023/08/14 12:26:50;;;;;;;1220.90;999.90;;;;;;;;;;5018703;28;20583;-68
2023/08/14 12:29:18;;;;;;;1208.93;999.90;;;;;;;;;;5029296;28;20551;-69
2023/08/14 12:31:46;;;;;;;1219.63;999.90;;;;;;;;;;5024211;28;21016;-68
2023/08/14 12:34:18;;;;;;;1197.18;999.90;;;;;;;;;;5028968;28;20530;-68
2023/08/14 12:36:45;;;;;;;1239.68;999.90;;;;;;;;;;5024531;28;20439;-69
2023/08/14 12:39:12;;;;;;;1188.18;999.90;;;;;;;;;;5027648;28;20560;-68
2023/08/14 12:41:39;;;;;;;306.00;279.85;;;;;;;;;;5027784;28;20521;-68
2023/08/14 12:44:06;;;;;;;1008.97;923.50;;;;;;;;;;5024748;28;20444;-67
2023/08/14 12:46:37;;;;;;;1224.93;999.90;;;;;;;;;;5025679;28;20425;-67
2023/08/14 12:49:04;;;;;;;1203.35;999.90;;;;;;;;;;5025900;28;20906;-68
2023/08/14 12:51:34;;;;;;;1163.00;999.90;;;;;;;;;;5027600;28;21004;-67
2023/08/14 12:54:01;;;;;;;1146.90;999.90;;;;;;;;;;5024371;28;20887;-69
2023/08/14 12:56:29;;;;;;;1191.03;999.90;;;;;;;;;;5025433;28;20514;-70
2023/08/14 12:58:56;;;;;;;1171.32;999.90;;;;;;;;;;5025481;28;20444;-67
2023/08/14 13:01:23;;;;;;;1184.75;999.90;;;;;;;;;;5026572;28;20437;-67
2023/08/14 13:03:51;;;;;;;1150.68;999.90;;;;;;;;;;5019243;28;20429;-68
2023/08/14 13:06:18;;;;;;;1151.00;999.90;;;;;;;;;;5026078;28;20624;-68
2023/08/14 13:08:47;;;;;;;911.55;836.80;;;;;;;;;;5025992;28;20439;-67
2023/08/14 13:11:15;;;;;;;584.42;535.30;;;;;;;;;;5023809;28;21796;-68
2023/08/14 13:13:42;;;;;;;894.00;819.50;;;;;;;;;;5025212;28;21055;-67
2023/08/14 13:16:09;;;;;;;255.88;233.73;;;;;;;;;;5026543;28;20553;-69
2023/08/14 13:18:36;;;;;;;907.83;827.58;;;;;;;;;;5025955;28;20442;-68
2023/08/14 13:21:03;;;;;;;1069.50;968.05;;;;;;;;;;5027876;28;20466;-68
2023/08/14 13:23:30;;;;;;;1059.32;965.60;;;;;;;;;;5025324;28;20437;-68
2023/08/14 13:25:58;;;;;;;799.45;730.75;;;;;;;;;;5015785;28;20913;-68
2023/08/14 13:28:25;;;;;;;1092.63;983.85;;;;;;;;;;5024571;28;20462;-68
2023/08/14 13:30:52;;;;;;;1046.60;955.90;;;;;;;;;;5025288;28;20534;-68
2023/08/14 13:33:19;;;;;;;1038.28;937.75;;;;;;;;;;5027249;28;20435;-67
2023/08/14 13:35:47;;;;;;;1060.65;967.80;;;;;;;;;;5026374;28;20452;-68
2023/08/14 13:38:14;;;;;;;996.50;911.97;;;;;;;;;;5028688;28;20521;-67
2023/08/14 13:40:42;;;;;;;1088.13;974.83;;;;;;;;;;5028456;28;20452;-68
2023/08/14 13:43:09;;;;;;;935.58;853.17;;;;;;;;;;5031268;28;20494;-67
2023/08/14 13:45:37;;;;;;;1008.55;923.90;;;;;;;;;;5028163;28;21817;-67
2023/08/14 13:48:06;;;;;;;1116.27;998.40;;;;;;;;;;5033275;28;20435;-67
2023/08/14 13:50:35;;;;;;;1130.75;999.90;;;;;;;;;;5026966;28;20911;-67
2023/08/14 13:53:02;;;;;;;1146.40;999.90;;;;;;;;;;5044491;28;20517;-67
2023/08/14 13:55:30;;;;;;;1053.35;963.92;;;;;;;;;;5046673;28;20431;-67
2023/08/14 13:58:00;;;;;;;6.93;6.55;;;;;;;;;;5022740;28;20556;-67
2023/08/14 14:00:28;;;;;;;171.27;158.10;;;;;;;;;;5027687;28;20435;-67